Time;durP1;ratioP1;P1;durP2;ratioP2;P2;SDS_P1;SDS_P2;PMS_P1;PMS_P2;Temp;Humidity;BMP_temperature;BMP_pressure;BME280_temperature;BME280_humidity;BME280_pressure;Samples;Min_cycle;Max_cycle;Signal;HPM_P1;HPM_P2
2021/08/15 00:00:01;;;;;;;16.98;12.95;;;;;;;;;;5019410;28;20030;-72
2021/08/15 00:02:29;;;;;;;17.88;13.18;;;;;;;;;;5019103;28;20026;-73
2021/08/15 00:04:55;;;;;;;17.10;12.57;;;;;;;;;;5018485;28;20034;-72
2021/08/15 00:07:21;;;;;;;14.25;12.60;;;;;;;;;;5019276;28;20072;-72
2021/08/15 00:09:47;;;;;;;17.48;13.23;;;;;;;;;;5015581;28;20026;-72
2021/08/15 00:12:14;;;;;;;13.85;12.45;;;;;;;;;;5015666;28;20434;-72
2021/08/15 00:14:40;;;;;;;13.18;11.63;;;;;;;;;;5017443;28;20502;-72
2021/08/15 00:17:06;;;;;;;16.58;12.77;;;;;;;;;;5016835;28;20353;-72
2021/08/15 00:19:32;;;;;;;13.55;12.15;;;;;;;;;;5016038;28;20034;-73
2021/08/15 00:21:59;;;;;;;14.27;13.00;;;;;;;;;;5015161;28;20141;-73
2021/08/15 00:24:25;;;;;;;16.13;13.00;;;;;;;;;;5015305;28;20076;-74
2021/08/15 00:26:51;;;;;;;13.27;11.98;;;;;;;;;;5017069;28;20025;-73
2021/08/15 00:29:17;;;;;;;17.08;13.38;;;;;;;;;;5017725;28;20357;-74
2021/08/15 00:31:43;;;;;;;16.98;12.77;;;;;;;;;;5015289;28;20101;-74
2021/08/15 00:34:09;;;;;;;16.20;12.57;;;;;;;;;;5017782;28;20084;-73
2021/08/15 00:36:36;;;;;;;16.00;14.45;;;;;;;;;;5017233;28;20372;-73
2021/08/15 00:39:02;;;;;;;14.48;13.13;;;;;;;;;;5016654;28;20053;-73
2021/08/15 00:41:28;;;;;;;15.40;11.80;;;;;;;;;;5018358;28;20030;-73
2021/08/15 00:43:54;;;;;;;17.15;12.75;;;;;;;;;;5019374;28;20582;-73
2021/08/15 00:46:21;;;;;;;18.67;11.73;;;;;;;;;;5037619;28;20475;-72
2021/08/15 00:48:47;;;;;;;18.25;11.75;;;;;;;;;;5038121;28;20112;-72
2021/08/15 00:51:13;;;;;;;12.82;11.60;;;;;;;;;;5038058;28;20030;-72
2021/08/15 00:53:39;;;;;;;11.98;10.80;;;;;;;;;;5038099;28;20021;-71
2021/08/15 00:56:06;;;;;;;23.38;12.82;;;;;;;;;;5037834;28;20034;-71
2021/08/15 00:58:33;;;;;;;19.40;11.98;;;;;;;;;;5037666;28;20145;-71
2021/08/15 01:01:00;;;;;;;17.38;11.88;;;;;;;;;;5037558;28;20104;-72
2021/08/15 01:03:26;;;;;;;13.35;12.00;;;;;;;;;;5038091;28;20033;-72
2021/08/15 01:05:52;;;;;;;13.00;11.70;;;;;;;;;;5038059;28;20029;-71
2021/08/15 01:08:18;;;;;;;19.05;12.90;;;;;;;;;;5037241;28;20033;-71
2021/08/15 01:10:44;;;;;;;13.82;12.50;;;;;;;;;;5036717;28;20049;-71
2021/08/15 01:13:11;;;;;;;11.93;10.85;;;;;;;;;;5036994;28;20121;-71
2021/08/15 01:15:37;;;;;;;13.57;12.18;;;;;;;;;;5036428;28;20383;-73
2021/08/15 01:18:16;;;;;;;12.63;11.52;;;;;;;;;;5036504;28;20429;-72
2021/08/15 01:20:42;;;;;;;13.27;11.77;;;;;;;;;;5036348;28;20109;-72
2021/08/15 01:23:08;;;;;;;14.93;13.63;;;;;;;;;;5035925;28;20032;-71
2021/08/15 01:25:34;;;;;;;12.90;11.80;;;;;;;;;;5036128;28;20034;-70
2021/08/15 01:28:00;;;;;;;17.17;11.18;;;;;;;;;;5035703;28;20550;-70
2021/08/15 01:30:27;;;;;;;12.43;11.25;;;;;;;;;;5036109;28;20479;-72
2021/08/15 01:32:53;;;;;;;12.52;11.43;;;;;;;;;;5035872;28;20482;-71
2021/08/15 01:35:19;;;;;;;15.10;11.48;;;;;;;;;;5035925;28;20562;-71
2021/08/15 01:37:45;;;;;;;14.00;12.32;;;;;;;;;;5036017;28;20025;-71
2021/08/15 01:40:12;;;;;;;15.43;11.15;;;;;;;;;;5035741;28;20076;-73
2021/08/15 01:42:38;;;;;;;12.82;11.27;;;;;;;;;;5034759;28;20032;-72
2021/08/15 01:45:08;;;;;;;17.23;10.77;;;;;;;;;;5034874;28;20033;-73
2021/08/15 01:47:34;;;;;;;14.52;12.10;;;;;;;;;;5035396;28;20060;-72
2021/08/15 01:50:00;;;;;;;16.40;12.07;;;;;;;;;;5035336;28;20029;-72
2021/08/15 01:52:26;;;;;;;15.95;11.45;;;;;;;;;;5034575;28;20057;-72
2021/08/15 01:54:53;;;;;;;13.27;11.82;;;;;;;;;;5034944;28;20083;-72
2021/08/15 01:57:19;;;;;;;12.02;10.25;;;;;;;;;;5034953;28;20432;-71
2021/08/15 01:59:45;;;;;;;16.20;11.95;;;;;;;;;;5034720;28;20392;-73
2021/08/15 02:02:11;;;;;;;14.93;11.68;;;;;;;;;;5035134;28;20429;-72
2021/08/15 02:04:37;;;;;;;17.10;10.32;;;;;;;;;;5034935;28;20052;-72
2021/08/15 02:07:04;;;;;;;11.60;10.68;;;;;;;;;;5035146;28;20083;-72
2021/08/15 02:09:30;;;;;;;16.85;11.68;;;;;;;;;;5035223;28;20088;-72
2021/08/15 02:11:57;;;;;;;12.30;11.25;;;;;;;;;;5034869;28;20029;-72
2021/08/15 02:14:23;;;;;;;12.35;10.88;;;;;;;;;;5034344;28;20045;-72
2021/08/15 02:16:49;;;;;;;11.63;10.63;;;;;;;;;;5034449;28;20033;-72
2021/08/15 02:19:15;;;;;;;13.57;11.23;;;;;;;;;;5035261;28;20100;-72
2021/08/15 02:21:41;;;;;;;13.15;10.02;;;;;;;;;;5034803;28;20030;-72
2021/08/15 02:24:07;;;;;;;13.27;10.65;;;;;;;;;;5034823;28;20026;-72
2021/08/15 02:26:33;;;;;;;12.15;10.35;;;;;;;;;;5034088;28;20022;-72
2021/08/15 02:28:59;;;;;;;11.98;10.80;;;;;;;;;;5034256;28;20032;-72
2021/08/15 02:31:26;;;;;;;13.68;11.98;;;;;;;;;;5034261;28;20022;-72
2021/08/15 02:33:52;;;;;;;12.27;9.52;;;;;;;;;;5034319;28;20037;-72
2021/08/15 02:36:18;;;;;;;17.38;12.07;;;;;;;;;;5034022;28;20040;-74
2021/08/15 02:38:44;;;;;;;14.82;11.70;;;;;;;;;;5034380;28;20022;-72
2021/08/15 02:41:10;;;;;;;11.82;10.65;;;;;;;;;;5034496;28;20067;-72
2021/08/15 02:43:36;;;;;;;10.48;9.57;;;;;;;;;;5034269;28;20033;-73
2021/08/15 02:46:02;;;;;;;10.85;9.75;;;;;;;;;;5034140;28;20475;-72
2021/08/15 02:48:30;;;;;;;12.25;10.52;;;;;;;;;;5034399;28;20467;-72
2021/08/15 02:50:57;;;;;;;13.95;10.63;;;;;;;;;;5034838;28;20092;-72
2021/08/15 02:53:24;;;;;;;11.13;9.93;;;;;;;;;;5034178;28;20076;-72
2021/08/15 02:55:50;;;;;;;11.10;9.98;;;;;;;;;;5033994;28;20033;-72
2021/08/15 02:58:16;;;;;;;14.30;11.60;;;;;;;;;;5033599;28;20156;-73
2021/08/15 03:00:43;;;;;;;11.57;10.43;;;;;;;;;;5034461;28;20033;-72
2021/08/15 03:03:09;;;;;;;11.88;10.77;;;;;;;;;;5034022;28;20025;-72
2021/08/15 03:05:35;;;;;;;13.05;11.88;;;;;;;;;;5034806;28;20025;-73
2021/08/15 03:08:01;;;;;;;11.43;10.15;;;;;;;;;;5034254;28;20032;-71
2021/08/15 03:10:27;;;;;;;12.95;10.48;;;;;;;;;;5034044;28;20025;-72
2021/08/15 03:12:53;;;;;;;13.38;11.60;;;;;;;;;;5034021;28;20025;-73
2021/08/15 03:15:19;;;;;;;13.75;12.30;;;;;;;;;;5033889;28;20033;-72
2021/08/15 03:17:45;;;;;;;12.63;11.00;;;;;;;;;;5034239;28;20035;-72
2021/08/15 03:20:11;;;;;;;16.23;12.55;;;;;;;;;;5034097;28;20032;-71
2021/08/15 03:22:37;;;;;;;13.23;11.88;;;;;;;;;;5033811;28;20029;-72
2021/08/15 03:25:03;;;;;;;15.13;11.90;;;;;;;;;;5034113;28;20113;-72
2021/08/15 03:27:30;;;;;;;13.23;11.95;;;;;;;;;;5033693;28;20116;-73
2021/08/15 03:29:56;;;;;;;14.15;11.20;;;;;;;;;;5033750;28;20072;-72
2021/08/15 03:32:22;;;;;;;11.63;10.63;;;;;;;;;;5033942;28;20026;-72
2021/08/15 03:34:48;;;;;;;11.88;10.88;;;;;;;;;;5034018;28;20455;-71
2021/08/15 03:37:14;;;;;;;11.75;10.85;;;;;;;;;;5033863;28;20083;-72
2021/08/15 03:39:40;;;;;;;22.35;12.60;;;;;;;;;;5034056;28;20453;-72
2021/08/15 03:42:06;;;;;;;12.82;11.55;;;;;;;;;;5033868;28;20071;-72
2021/08/15 03:44:32;;;;;;;14.30;12.25;;;;;;;;;;5033568;28;20389;-72
2021/08/15 03:46:59;;;;;;;13.48;11.90;;;;;;;;;;5033850;28;20021;-72
2021/08/15 03:49:26;;;;;;;16.95;11.43;;;;;;;;;;5034421;28;20033;-72
2021/08/15 03:51:52;;;;;;;15.30;12.77;;;;;;;;;;5033709;28;20546;-71
2021/08/15 03:54:20;;;;;;;15.27;13.60;;;;;;;;;;5033671;28;20030;-73
2021/08/15 03:56:47;;;;;;;14.13;12.68;;;;;;;;;;5033838;28;20021;-73
2021/08/15 03:59:13;;;;;;;14.80;13.40;;;;;;;;;;5033782;28;20436;-72
2021/08/15 04:01:39;;;;;;;23.38;12.57;;;;;;;;;;5034111;28;20030;-72
2021/08/15 04:04:05;;;;;;;15.35;13.82;;;;;;;;;;5033891;28;20030;-72
2021/08/15 04:06:33;;;;;;;13.45;12.15;;;;;;;;;;5033548;28;20029;-72
2021/08/15 04:09:01;;;;;;;15.82;12.70;;;;;;;;;;5033602;28;20064;-72
2021/08/15 04:11:27;;;;;;;15.45;13.23;;;;;;;;;;5033649;28;20025;-72
2021/08/15 04:13:53;;;;;;;14.20;11.82;;;;;;;;;;5034528;28;20430;-72
2021/08/15 04:16:19;;;;;;;15.10;13.63;;;;;;;;;;5036930;28;20431;-73
2021/08/15 04:18:45;;;;;;;14.70;12.77;;;;;;;;;;5037275;28;20040;-72
2021/08/15 04:21:11;;;;;;;13.50;12.20;;;;;;;;;;5037693;28;20083;-72
2021/08/15 04:23:37;;;;;;;14.07;12.43;;;;;;;;;;5037269;28;20025;-71
2021/08/15 04:26:03;;;;;;;15.82;13.07;;;;;;;;;;5036897;28;20044;-73
2021/08/15 04:28:29;;;;;;;11.93;10.68;;;;;;;;;;5036670;28;20071;-72
2021/08/15 04:30:56;;;;;;;17.38;14.15;;;;;;;;;;5037097;28;20029;-70
2021/08/15 04:33:24;;;;;;;22.30;12.60;;;;;;;;;;5034549;28;20025;-70
2021/08/15 04:35:50;;;;;;;18.30;13.35;;;;;;;;;;5036758;28;20506;-72
2021/08/15 04:38:16;;;;;;;14.82;12.50;;;;;;;;;;5036882;28;20037;-71
2021/08/15 04:40:43;;;;;;;13.35;11.95;;;;;;;;;;5036562;28;20511;-75
2021/08/15 04:43:09;;;;;;;18.38;13.38;;;;;;;;;;5036454;28;20025;-70
2021/08/15 04:45:35;;;;;;;14.25;12.85;;;;;;;;;;5037281;28;20026;-69
2021/08/15 04:48:02;;;;;;;15.35;13.10;;;;;;;;;;5035374;28;20044;-69
2021/08/15 04:50:28;;;;;;;16.58;13.23;;;;;;;;;;5036843;28;20064;-70
2021/08/15 04:52:54;;;;;;;16.17;12.85;;;;;;;;;;5036848;28;20574;-70
2021/08/15 04:55:20;;;;;;;14.88;13.27;;;;;;;;;;5035817;28;20029;-72
2021/08/15 04:57:46;;;;;;;15.70;13.85;;;;;;;;;;5034756;28;20036;-70
2021/08/15 05:00:12;;;;;;;15.80;14.07;;;;;;;;;;5036386;28;20017;-71
2021/08/15 05:02:38;;;;;;;17.20;13.52;;;;;;;;;;5036474;28;20026;-71
2021/08/15 05:05:04;;;;;;;15.57;14.02;;;;;;;;;;5036257;28;20033;-72
2021/08/15 05:07:30;;;;;;;14.73;13.23;;;;;;;;;;5035195;28;20022;-73
2021/08/15 05:09:57;;;;;;;14.48;13.07;;;;;;;;;;5036379;28;20033;-73
2021/08/15 05:12:23;;;;;;;14.75;13.38;;;;;;;;;;5036356;28;20044;-71
2021/08/15 05:14:49;;;;;;;11.98;10.70;;;;;;;;;;5036511;28;20080;-72
2021/08/15 05:17:15;;;;;;;12.93;11.35;;;;;;;;;;5035106;28;20025;-71
2021/08/15 05:19:41;;;;;;;22.17;12.82;;;;;;;;;;5036115;28;20025;-73
2021/08/15 05:22:07;;;;;;;12.05;10.77;;;;;;;;;;5036118;28;20025;-71
2021/08/15 05:24:34;;;;;;;13.77;12.38;;;;;;;;;;5037563;28;20037;-73
2021/08/15 05:27:04;;;;;;;15.73;14.18;;;;;;;;;;5035603;28;20036;-73
2021/08/15 05:29:32;;;;;;;15.18;12.75;;;;;;;;;;5036566;28;20025;-72
2021/08/15 05:31:59;;;;;;;12.90;11.60;;;;;;;;;;5035843;28;20479;-72
2021/08/15 05:34:25;;;;;;;12.95;11.65;;;;;;;;;;5035383;28;20025;-72
2021/08/15 05:36:53;;;;;;;13.20;11.98;;;;;;;;;;5031833;28;20049;-72
2021/08/15 05:39:20;;;;;;;13.48;12.07;;;;;;;;;;5035043;28;20391;-72
2021/08/15 05:41:47;;;;;;;14.20;12.48;;;;;;;;;;5035245;28;20084;-72
2021/08/15 05:44:13;;;;;;;16.65;12.07;;;;;;;;;;5034555;28;20033;-72
2021/08/15 05:46:39;;;;;;;14.50;12.88;;;;;;;;;;5035451;28;20068;-72
2021/08/15 05:49:06;;;;;;;13.02;11.73;;;;;;;;;;5035487;28;20017;-71
2021/08/15 05:51:32;;;;;;;15.50;13.80;;;;;;;;;;5034075;28;20025;-72
2021/08/15 05:53:58;;;;;;;12.95;11.85;;;;;;;;;;5035097;28;20029;-72
2021/08/15 05:56:24;;;;;;;11.90;10.77;;;;;;;;;;5035208;28;20038;-72
2021/08/15 05:58:50;;;;;;;13.55;12.35;;;;;;;;;;5035487;28;20060;-72
2021/08/15 06:01:16;;;;;;;13.07;11.90;;;;;;;;;;5033339;28;20021;-71
2021/08/15 06:03:42;;;;;;;13.50;12.23;;;;;;;;;;5034792;28;20040;-70
2021/08/15 06:06:08;;;;;;;14.07;12.60;;;;;;;;;;5034838;28;20048;-71
2021/08/15 06:08:34;;;;;;;15.88;11.68;;;;;;;;;;5034608;28;20075;-73
2021/08/15 06:11:02;;;;;;;14.20;12.70;;;;;;;;;;5033416;28;20029;-70
2021/08/15 06:13:28;;;;;;;13.05;11.85;;;;;;;;;;5035184;28;20036;-71
2021/08/15 06:15:54;;;;;;;12.43;11.05;;;;;;;;;;5034842;28;20034;-71
2021/08/15 06:18:20;;;;;;;13.60;12.20;;;;;;;;;;5034105;28;20061;-70
2021/08/15 06:20:46;;;;;;;14.95;11.65;;;;;;;;;;5032941;28;20033;-70
2021/08/15 06:23:12;;;;;;;13.40;12.20;;;;;;;;;;5033478;28;20026;-72
2021/08/15 06:25:38;;;;;;;15.18;13.60;;;;;;;;;;5034241;28;20033;-70
2021/08/15 06:28:04;;;;;;;15.10;13.68;;;;;;;;;;5034277;28;20017;-69
2021/08/15 06:30:30;;;;;;;13.07;11.88;;;;;;;;;;5033026;28;20021;-70
2021/08/15 06:32:57;;;;;;;13.88;12.68;;;;;;;;;;5034615;28;20028;-72
2021/08/15 06:35:24;;;;;;;16.65;10.98;;;;;;;;;;5034315;28;20041;-70
2021/08/15 06:37:52;;;;;;;21.02;11.40;;;;;;;;;;5033191;28;20025;-69
2021/08/15 06:40:18;;;;;;;12.40;11.15;;;;;;;;;;5034501;28;20076;-76
2021/08/15 06:42:44;;;;;;;34.83;11.55;;;;;;;;;;5035134;28;20021;-72
2021/08/15 06:45:10;;;;;;;14.38;12.85;;;;;;;;;;5034759;28;20116;-71
2021/08/15 06:47:36;;;;;;;15.20;12.27;;;;;;;;;;5034380;28;20374;-71
2021/08/15 06:50:03;;;;;;;14.85;13.55;;;;;;;;;;5034633;28;20033;-72
2021/08/15 06:52:30;;;;;;;12.77;11.57;;;;;;;;;;5033763;28;20021;-72
2021/08/15 06:54:57;;;;;;;17.77;15.18;;;;;;;;;;5034440;28;20038;-73
2021/08/15 06:57:23;;;;;;;19.95;15.07;;;;;;;;;;5034279;28;20453;-73
2021/08/15 06:59:49;;;;;;;20.02;14.98;;;;;;;;;;5034565;28;20049;-72
2021/08/15 07:02:15;;;;;;;23.63;13.75;;;;;;;;;;5034448;28;20026;-73
2021/08/15 07:04:41;;;;;;;18.08;14.52;;;;;;;;;;5033865;28;20021;-73
2021/08/15 07:07:07;;;;;;;21.45;15.90;;;;;;;;;;5033894;28;20028;-74
2021/08/15 07:09:33;;;;;;;17.10;14.27;;;;;;;;;;5034095;28;20084;-74
2021/08/15 07:11:59;;;;;;;21.15;15.02;;;;;;;;;;5034077;28;20468;-74
2021/08/15 07:14:25;;;;;;;15.88;12.60;;;;;;;;;;5034071;28;20029;-73
2021/08/15 07:16:51;;;;;;;15.68;11.77;;;;;;;;;;5034129;28;20418;-72
2021/08/15 07:19:17;;;;;;;19.40;12.40;;;;;;;;;;5034243;28;20052;-74
2021/08/15 07:21:43;;;;;;;14.15;12.77;;;;;;;;;;5033792;28;20026;-73
2021/08/15 07:24:10;;;;;;;15.90;12.48;;;;;;;;;;5034045;28;20029;-73
2021/08/15 07:26:36;;;;;;;17.90;13.23;;;;;;;;;;5033762;28;20025;-73
2021/08/15 07:29:02;;;;;;;13.80;12.32;;;;;;;;;;5034074;28;20044;-72
2021/08/15 07:31:28;;;;;;;37.53;14.60;;;;;;;;;;5034240;28;20056;-74
2021/08/15 07:33:54;;;;;;;14.93;13.07;;;;;;;;;;5034296;28;20356;-73
2021/08/15 07:36:20;;;;;;;16.83;13.27;;;;;;;;;;5032844;28;20183;-77
2021/08/15 07:38:46;;;;;;;14.32;13.02;;;;;;;;;;5031531;28;20021;-72
2021/08/15 07:41:12;;;;;;;19.33;12.07;;;;;;;;;;5033573;28;20032;-74
2021/08/15 07:43:38;;;;;;;18.88;12.18;;;;;;;;;;5034059;28;20025;-74
2021/08/15 07:46:04;;;;;;;16.67;12.35;;;;;;;;;;5034482;28;20029;-74
2021/08/15 07:48:30;;;;;;;15.50;11.52;;;;;;;;;;5032257;28;20059;-76
2021/08/15 07:50:56;;;;;;;11.77;10.70;;;;;;;;;;5038462;28;20378;-77
2021/08/15 07:53:25;;;;;;;13.02;11.65;;;;;;;;;;5039567;28;20036;-77
2021/08/15 07:55:52;;;;;;;13.52;12.13;;;;;;;;;;5038573;28;20045;-76
2021/08/15 07:58:19;;;;;;;13.25;11.70;;;;;;;;;;5037693;28;20057;-76
2021/08/15 08:00:45;;;;;;;12.52;11.45;;;;;;;;;;5039636;28;20029;-77
2021/08/15 08:03:12;;;;;;;14.02;11.98;;;;;;;;;;5038968;28;20371;-73
2021/08/15 08:05:38;;;;;;;14.27;11.75;;;;;;;;;;5037287;28;20025;-73
2021/08/15 08:08:04;;;;;;;19.10;11.55;;;;;;;;;;5036523;28;20025;-72
2021/08/15 08:10:30;;;;;;;17.70;12.90;;;;;;;;;;5037135;28;20022;-73
2021/08/15 08:12:57;;;;;;;12.90;10.95;;;;;;;;;;5038356;28;20029;-73
2021/08/15 08:15:23;;;;;;;12.95;11.75;;;;;;;;;;5037868;28;20041;-72
2021/08/15 08:17:49;;;;;;;15.68;11.35;;;;;;;;;;5034485;28;20032;-75
2021/08/15 08:20:17;;;;;;;17.23;11.02;;;;;;;;;;5035111;28;20029;-73
2021/08/15 08:22:43;;;;;;;15.05;11.15;;;;;;;;;;5036790;28;20088;-73
2021/08/15 08:25:09;;;;;;;12.95;11.73;;;;;;;;;;5038070;28;20033;-73
2021/08/15 08:27:36;;;;;;;15.98;11.48;;;;;;;;;;5037617;28;20026;-72
2021/08/15 08:30:02;;;;;;;16.55;11.68;;;;;;;;;;5036481;28;20078;-73
2021/08/15 08:32:28;;;;;;;16.90;11.57;;;;;;;;;;5037060;28;20022;-75
2021/08/15 08:34:54;;;;;;;12.60;11.25;;;;;;;;;;5036830;28;20037;-72
2021/08/15 08:37:21;;;;;;;12.95;10.55;;;;;;;;;;5037076;28;20383;-74
2021/08/15 08:39:47;;;;;;;17.63;11.55;;;;;;;;;;5036372;28;20025;-71
2021/08/15 08:42:15;;;;;;;15.05;10.32;;;;;;;;;;5036438;28;20029;-72
2021/08/15 08:44:41;;;;;;;13.27;10.93;;;;;;;;;;5036730;28;20033;-73
2021/08/15 08:47:09;;;;;;;14.05;10.65;;;;;;;;;;5037356;28;20108;-73
2021/08/15 08:49:35;;;;;;;12.18;10.65;;;;;;;;;;5036184;28;20470;-73
2021/08/15 08:52:02;;;;;;;11.65;10.68;;;;;;;;;;5037244;28;20030;-70
2021/08/15 08:54:28;;;;;;;13.20;11.93;;;;;;;;;;5036278;28;20030;-73
2021/08/15 08:56:55;;;;;;;13.25;10.15;;;;;;;;;;5037386;28;20021;-74
2021/08/15 08:59:21;;;;;;;15.63;11.35;;;;;;;;;;5036790;28;20050;-75
2021/08/15 09:01:47;;;;;;;13.95;10.02;;;;;;;;;;5036204;28;20033;-75
2021/08/15 09:04:13;;;;;;;13.43;10.88;;;;;;;;;;5036749;28;20148;-78
2021/08/15 09:06:40;;;;;;;14.77;10.27;;;;;;;;;;5036236;28;20025;-74
2021/08/15 09:09:14;;;;;;;11.70;10.55;;;;;;;;;;5035800;28;20096;-75
2021/08/15 09:11:40;;;;;;;20.85;11.20;;;;;;;;;;5035546;28;20678;-74
2021/08/15 09:14:09;;;;;;;12.93;9.68;;;;;;;;;;5035138;28;20025;-74
2021/08/15 09:16:55;;;;;;;11.48;9.27;;;;;;;;;;5035559;28;20049;-74
2021/08/15 09:19:23;;;;;;;12.93;8.32;;;;;;;;;;5020559;28;20025;-79
2021/08/15 09:21:49;;;;;;;13.25;8.80;;;;;;;;;;5034039;28;20030;-77
2021/08/15 09:24:15;;;;;;;14.73;10.10;;;;;;;;;;5036959;28;20117;-76
2021/08/15 09:26:43;;;;;;;18.40;8.40;;;;;;;;;;5036935;28;20470;-76
2021/08/15 09:29:17;;;;;;;10.85;8.10;;;;;;;;;;5037149;28;20029;-76
2021/08/15 09:31:43;;;;;;;15.15;9.07;;;;;;;;;;5037147;28;20353;-76
2021/08/15 09:34:14;;;;;;;10.15;8.38;;;;;;;;;;5036440;28;20030;-73
2021/08/15 09:36:40;;;;;;;;;;;;;;;;;;5035481;28;20042;-73
2021/08/15 09:39:07;;;;;;;13.27;8.55;;;;;;;;;;5034557;28;19911;-75
2021/08/15 09:41:35;;;;;;;12.63;8.90;;;;;;;;;;5035079;28;20072;-75
2021/08/15 09:44:21;;;;;;;13.30;7.68;;;;;;;;;;5037092;28;20113;-74
2021/08/15 09:47:07;;;;;;;16.92;9.18;;;;;;;;;;5021909;28;20018;-75
2021/08/15 09:49:34;;;;;;;21.40;8.68;;;;;;;;;;5022822;28;20033;-75
2021/08/15 09:52:01;;;;;;;18.92;8.77;;;;;;;;;;5035685;28;20025;-73
2021/08/15 09:54:27;;;;;;;15.70;9.55;;;;;;;;;;5035616;28;20052;-72
2021/08/15 09:56:55;;;;;;;13.82;8.60;;;;;;;;;;5036715;28;20132;-76
2021/08/15 09:59:23;;;;;;;14.23;8.32;;;;;;;;;;5036856;28;20053;-75
2021/08/15 10:01:50;;;;;;;13.05;9.15;;;;;;;;;;5035163;28;20476;-75
2021/08/15 10:04:16;;;;;;;12.82;9.27;;;;;;;;;;5035406;28;20079;-75
2021/08/15 10:06:43;;;;;;;21.10;8.68;;;;;;;;;;5035031;28;20109;-75
2021/08/15 10:09:09;;;;;;;11.93;8.77;;;;;;;;;;5034232;28;20479;-74
2021/08/15 10:11:36;;;;;;;13.88;9.20;;;;;;;;;;5035180;28;20026;-70
2021/08/15 10:14:02;;;;;;;11.30;8.75;;;;;;;;;;5034822;28;20075;-79
2021/08/15 10:16:30;;;;;;;14.05;8.52;;;;;;;;;;5034771;28;20140;-73
2021/08/15 10:18:56;;;;;;;11.27;8.27;;;;;;;;;;5035345;28;20053;-73
2021/08/15 10:21:22;;;;;;;13.88;7.95;;;;;;;;;;5035511;28;20033;-74
2021/08/15 10:23:48;;;;;;;13.15;7.65;;;;;;;;;;5034761;28;20025;-74
2021/08/15 10:26:34;;;;;;;18.65;8.60;;;;;;;;;;5035643;28;20028;-73
2021/08/15 10:29:00;;;;;;;22.30;6.63;;;;;;;;;;5020911;28;20025;-74
2021/08/15 10:31:46;;;;;;;17.70;7.43;;;;;;;;;;5034836;28;20021;-74
2021/08/15 10:34:12;;;;;;;10.80;7.20;;;;;;;;;;5020294;28;20379;-74
2021/08/15 10:36:39;;;;;;;11.27;6.60;;;;;;;;;;5034492;28;20099;-73
2021/08/15 10:39:25;;;;;;;10.15;7.15;;;;;;;;;;5033055;28;20053;-74
2021/08/15 10:41:52;;;;;;;12.60;7.82;;;;;;;;;;5035979;28;20021;-78
2021/08/15 10:44:18;;;;;;;12.50;7.53;;;;;;;;;;5037766;28;20022;-78
2021/08/15 10:47:04;;;;;;;10.15;8.77;;;;;;;;;;5037267;28;20025;-79
2021/08/15 10:49:46;;;;;;;9.52;7.80;;;;;;;;;;5022015;28;20018;-78
2021/08/15 10:52:12;;;;;;;;;;;;;;;;;;5038497;28;20025;-87
2021/08/15 10:54:59;;;;;;;8.48;7.57;;;;;;;;;;5036656;28;19912;-79
2021/08/15 10:57:46;;;;;;;11.45;7.50;;;;;;;;;;5037512;28;20605;-77
2021/08/15 11:00:32;;;;;;;8.85;7.30;;;;;;;;;;4993141;28;20046;-80
2021/08/15 11:03:00;;;;;;;9.82;7.28;;;;;;;;;;4985146;28;20082;-77
2021/08/15 11:05:38;;;;;;;12.27;8.80;;;;;;;;;;4991405;28;20083;-78
2021/08/15 11:08:04;;;;;;;16.95;8.57;;;;;;;;;;4995369;28;20023;-74
2021/08/15 11:10:50;;;;;;;13.18;9.30;;;;;;;;;;4994501;28;20034;-73
2021/08/15 11:13:17;;;;;;;10.95;9.82;;;;;;;;;;4995589;28;20046;-74
2021/08/15 11:15:43;;;;;;;12.23;10.82;;;;;;;;;;4995706;28;20384;-73
2021/08/15 11:18:10;;;;;;;10.77;9.68;;;;;;;;;;4995344;28;20053;-73
2021/08/15 11:20:37;;;;;;;15.63;12.65;;;;;;;;;;4993441;28;20118;-73
2021/08/15 11:23:05;;;;;;;13.65;12.20;;;;;;;;;;4996187;28;20035;-75
2021/08/15 11:25:32;;;;;;;14.40;11.70;;;;;;;;;;5001894;28;20384;-82
2021/08/15 11:27:58;;;;;;;17.80;10.25;;;;;;;;;;5003314;28;20057;-72
2021/08/15 11:30:24;;;;;;;18.70;11.60;;;;;;;;;;5000180;28;20100;-75
2021/08/15 11:32:52;;;;;;;13.50;11.40;;;;;;;;;;5001905;28;20479;-74
2021/08/15 11:35:18;;;;;;;15.50;11.93;;;;;;;;;;5002066;28;20045;-72
2021/08/15 11:37:52;;;;;;;14.88;11.25;;;;;;;;;;5003114;28;20018;-76
2021/08/15 11:40:21;;;;;;;14.02;10.65;;;;;;;;;;5000475;28;20022;-80
2021/08/15 11:43:05;;;;;;;14.27;12.75;;;;;;;;;;4983327;28;20113;-75
2021/08/15 11:45:35;;;;;;;13.35;11.50;;;;;;;;;;4983324;28;20121;-77
2021/08/15 11:48:17;;;;;;;13.68;10.75;;;;;;;;;;4984584;28;20034;-77
2021/08/15 11:50:44;;;;;;;15.38;12.10;;;;;;;;;;4982878;28;20033;-78
2021/08/15 11:53:18;;;;;;;15.40;10.45;;;;;;;;;;4983994;28;20057;-78
2021/08/15 11:55:44;;;;;;;14.90;13.52;;;;;;;;;;4984400;28;20035;-78
2021/08/15 11:58:11;;;;;;;13.35;12.00;;;;;;;;;;4993013;28;20503;-77
2021/08/15 12:00:42;;;;;;;14.13;12.82;;;;;;;;;;5022214;28;20028;-74
2021/08/15 12:03:09;;;;;;;14.82;13.25;;;;;;;;;;5031861;28;20368;-73
2021/08/15 12:05:36;;;;;;;14.60;13.05;;;;;;;;;;5039810;28;20029;-76
2021/08/15 12:08:05;;;;;;;18.15;13.43;;;;;;;;;;5021508;28;20049;-74
2021/08/15 12:10:32;;;;;;;15.35;13.77;;;;;;;;;;5021167;28;20090;-76
2021/08/15 12:13:18;;;;;;;16.70;13.77;;;;;;;;;;5038444;28;20035;-76
2021/08/15 12:15:45;;;;;;;15.88;14.35;;;;;;;;;;5026956;28;20036;-78
2021/08/15 12:18:27;;;;;;;20.75;13.90;;;;;;;;;;5043915;28;20037;-79
2021/08/15 12:20:54;;;;;;;15.45;14.02;;;;;;;;;;5041901;28;20493;-72
2021/08/15 12:23:20;;;;;;;14.38;13.07;;;;;;;;;;5041891;28;20107;-73
2021/08/15 12:26:02;;;;;;;14.63;13.20;;;;;;;;;;5039899;28;20025;-77
2021/08/15 12:28:30;;;;;;;16.88;13.13;;;;;;;;;;5041610;28;20032;-76
2021/08/15 12:30:56;;;;;;;15.98;13.65;;;;;;;;;;5042183;28;20037;-78
2021/08/15 12:33:23;;;;;;;15.52;13.93;;;;;;;;;;5042812;28;20028;-78
2021/08/15 12:35:49;;;;;;;13.65;12.25;;;;;;;;;;5039264;28;20402;-78
2021/08/15 12:38:30;;;;;;;15.25;13.27;;;;;;;;;;5039122;28;20028;-78
2021/08/15 12:41:16;;;;;;;17.30;12.15;;;;;;;;;;5039394;28;20025;-75
2021/08/15 12:43:42;;;;;;;12.77;11.50;;;;;;;;;;5022760;28;20028;-78
2021/08/15 12:46:24;;;;;;;13.93;12.73;;;;;;;;;;5039151;28;20025;-80
2021/08/15 12:48:50;;;;;;;13.85;12.65;;;;;;;;;;5040473;28;20017;-85
2021/08/15 12:51:20;;;;;;;13.07;11.82;;;;;;;;;;5039640;28;20033;-89
2021/08/15 12:53:46;;;;;;;14.45;12.30;;;;;;;;;;5039577;28;20426;-84
2021/08/15 12:56:16;;;;;;;17.33;12.27;;;;;;;;;;5038845;28;20056;-79
2021/08/15 12:58:42;;;;;;;13.82;12.73;;;;;;;;;;5037464;28;20495;-78
2021/08/15 13:01:14;;;;;;;13.82;12.48;;;;;;;;;;5038419;28;20025;-79
2021/08/15 13:03:40;;;;;;;14.32;12.40;;;;;;;;;;5038460;28;20459;-82
2021/08/15 13:06:08;;;;;;;14.32;12.93;;;;;;;;;;5039696;28;20048;-78
2021/08/15 13:08:34;;;;;;;14.25;12.88;;;;;;;;;;5039020;28;20033;-83
2021/08/15 13:11:00;;;;;;;16.15;11.45;;;;;;;;;;5038396;28;20452;-85
2021/08/15 13:13:26;;;;;;;17.83;12.88;;;;;;;;;;5039343;28;20482;-81
2021/08/15 13:15:53;;;;;;;13.50;11.63;;;;;;;;;;5039226;28;20033;-78
2021/08/15 13:18:20;;;;;;;12.57;11.30;;;;;;;;;;5037549;28;20033;-78
2021/08/15 13:20:46;;;;;;;13.27;11.52;;;;;;;;;;5037568;28;20459;-77
2021/08/15 13:23:12;;;;;;;14.85;12.80;;;;;;;;;;5038037;28;20483;-77
2021/08/15 13:25:38;;;;;;;14.27;12.32;;;;;;;;;;5036686;28;20030;-76
2021/08/15 13:28:04;;;;;;;13.55;11.25;;;;;;;;;;5037233;28;20026;-73
2021/08/15 13:30:30;;;;;;;14.07;12.77;;;;;;;;;;5036691;28;20559;-76
2021/08/15 13:33:00;;;;;;;11.93;10.82;;;;;;;;;;5036723;28;20032;-73
2021/08/15 13:35:26;;;;;;;14.20;12.80;;;;;;;;;;5036893;28;20080;-74
2021/08/15 13:37:52;;;;;;;14.50;11.80;;;;;;;;;;5038951;28;20447;-78
2021/08/15 13:40:18;;;;;;;17.83;11.20;;;;;;;;;;5038292;28;20083;-79
2021/08/15 13:42:44;;;;;;;12.68;11.50;;;;;;;;;;5038826;28;20033;-79
2021/08/15 13:45:11;;;;;;;14.82;12.07;;;;;;;;;;5036887;28;20475;-76
2021/08/15 13:47:37;;;;;;;11.70;10.65;;;;;;;;;;5037712;28;20047;-79
2021/08/15 13:50:04;;;;;;;12.70;11.55;;;;;;;;;;5038027;28;20108;-81
2021/08/15 13:52:31;;;;;;;11.77;10.70;;;;;;;;;;5038110;28;20024;-80
2021/08/15 13:54:57;;;;;;;12.38;11.15;;;;;;;;;;5038457;28;20061;-82
2021/08/15 13:57:23;;;;;;;13.10;10.57;;;;;;;;;;5038326;28;20483;-84
2021/08/15 13:59:51;;;;;;;10.85;9.82;;;;;;;;;;5038014;28;20438;-81
2021/08/15 14:02:18;;;;;;;11.38;10.05;;;;;;;;;;5037884;28;20415;-76
2021/08/15 14:04:44;;;;;;;12.07;10.77;;;;;;;;;;5038028;28;20022;-76
2021/08/15 14:07:10;;;;;;;12.18;10.85;;;;;;;;;;5037625;28;20348;-80
2021/08/15 14:09:37;;;;;;;9.80;8.90;;;;;;;;;;5038047;28;20018;-80
2021/08/15 14:12:04;;;;;;;10.20;9.10;;;;;;;;;;5037877;28;20032;-80
2021/08/15 14:14:30;;;;;;;11.25;9.40;;;;;;;;;;5037992;28;20029;-83
2021/08/15 14:16:56;;;;;;;10.10;9.15;;;;;;;;;;5038276;28;20022;-84
2021/08/15 14:19:23;;;;;;;10.02;9.13;;;;;;;;;;5038284;28;20049;-83
2021/08/15 14:21:49;;;;;;;9.13;8.25;;;;;;;;;;5037965;28;20467;-84